createdAt,value
2016-07-13T00:00:27.378Z,64.94
2016-07-13T00:01:20.321Z,64.90
2016-07-13T00:02:15.809Z,64.83
2016-07-13T00:03:25.660Z,64.86
2016-07-13T00:04:23.517Z,64.91
2016-07-13T00:05:21.088Z,64.83
2016-07-13T00:06:20.767Z,64.86
2016-07-13T00:07:23.876Z,65.08
2016-07-13T00:08:27.336Z,64.79
2016-07-13T00:09:21.932Z,64.88
2016-07-13T00:10:25.437Z,64.94
2016-07-13T00:11:27.153Z,64.89
2016-07-13T00:12:20.760Z,65.12
2016-07-13T00:13:24.095Z,64.98
2016-07-13T00:14:26.921Z,64.94
2016-07-13T00:15:27.123Z,64.90
2016-07-13T00:16:26.165Z,64.82
2016-07-13T00:17:27.746Z,64.95
2016-07-13T00:18:20.601Z,64.96
2016-07-13T00:19:18.256Z,64.85
2016-07-13T00:30:49.618Z,65.00
2016-07-13T00:31:20.031Z,65.12
2016-07-13T00:32:18.465Z,64.98
2016-07-13T00:33:19.573Z,64.92
2016-07-13T00:34:29.370Z,64.86
2016-07-13T00:35:21.903Z,64.87
2016-07-13T00:36:21.857Z,64.82
2016-07-13T00:37:23.965Z,64.80
2016-07-13T00:38:23.768Z,64.85
2016-07-13T00:39:23.159Z,64.83
2016-07-13T00:40:23.688Z,64.73
2016-07-13T00:41:23.667Z,64.71
2016-07-13T00:42:14.839Z,64.74
2016-07-13T00:43:33.522Z,64.85
2016-07-13T00:44:30.228Z,64.79
2016-07-13T00:45:28.530Z,65.04
2016-07-13T00:46:23.857Z,65.24
2016-07-13T00:47:28.228Z,64.26
2016-07-13T00:48:27.266Z,64.12
2016-07-13T00:49:29.791Z,64.29
2016-07-13T00:50:23.344Z,64.98
2016-07-13T00:51:27.102Z,65.26
2016-07-13T00:52:19.876Z,65.23
2016-07-13T00:53:23.209Z,65.08
2016-07-13T00:54:22.695Z,65.30
2016-07-13T00:55:31.675Z,65.24
2016-07-13T00:56:26.079Z,65.25
2016-07-13T00:57:16.432Z,65.27
2016-07-13T00:58:24.652Z,64.19
2016-07-13T00:59:23.308Z,64.03
2016-07-13T01:00:21.466Z,63.79
2016-07-13T01:01:32.151Z,63.79
2016-07-13T01:02:32.239Z,63.87
2016-07-13T01:03:18.934Z,64.06
2016-07-13T01:04:19.657Z,64.09
2016-07-13T01:05:33.985Z,64.08
2016-07-13T01:06:24.824Z,63.87
2016-07-13T01:07:27.575Z,63.82
2016-07-13T01:08:28.194Z,63.93
2016-07-13T01:09:30.039Z,63.94
2016-07-13T01:10:20.316Z,64.20
2016-07-13T01:11:28.647Z,64.81
2016-07-13T01:12:32.895Z,64.86
2016-07-13T01:13:19.417Z,65.10
2016-07-13T01:14:28.385Z,65.25
2016-07-13T01:15:22.240Z,65.22
2016-07-13T01:16:22.432Z,65.09
2016-07-13T01:17:22.562Z,64.92
2016-07-13T01:18:32.481Z,65.13
2016-07-13T01:19:21.228Z,65.04
2016-07-13T01:20:22.133Z,64.12
2016-07-13T01:21:25.927Z,63.86
2016-07-13T01:22:31.464Z,63.76
2016-07-13T01:23:27.888Z,63.68
2016-07-13T01:24:22.327Z,63.69
2016-07-13T01:25:16.912Z,63.67
2016-07-13T01:26:20.129Z,63.47
2016-07-13T01:27:22.126Z,63.65
2016-07-13T01:28:27.238Z,64.62
2016-07-13T01:29:26.295Z,64.91
2016-07-13T01:30:21.016Z,64.84
2016-07-13T01:31:36.360Z,64.99
2016-07-13T01:32:27.340Z,64.96
2016-07-13T01:33:31.567Z,64.95
2016-07-13T01:34:23.363Z,65.02
2016-07-13T01:35:22.345Z,65.00
2016-07-13T01:36:21.738Z,65.00
2016-07-13T01:37:27.582Z,64.98
2016-07-13T01:38:30.006Z,65.03
2016-07-13T01:39:24.831Z,64.85
2016-07-13T01:40:28.016Z,65.07
2016-07-13T01:41:24.951Z,65.06
2016-07-13T01:42:29.667Z,64.75
2016-07-13T01:43:28.094Z,65.08
2016-07-13T01:44:25.790Z,64.81
2016-07-13T01:45:19.654Z,64.72
2016-07-13T01:46:42.526Z,64.76
2016-07-13T01:47:27.860Z,65.01
2016-07-13T01:48:21.828Z,64.95
2016-07-13T01:49:28.874Z,65.01
2016-07-13T01:50:34.483Z,65.07
2016-07-13T01:51:20.371Z,64.95
2016-07-13T01:52:27.340Z,64.72
2016-07-13T01:53:29.681Z,65.01
2016-07-13T01:54:22.075Z,64.95
2016-07-13T01:55:20.343Z,64.79
2016-07-13T01:56:28.542Z,65.12
2016-07-13T01:57:22.711Z,64.85
2016-07-13T01:58:20.364Z,65.04
2016-07-13T01:59:20.596Z,64.75
2016-07-13T02:00:20.186Z,64.81
2016-07-13T02:01:25.113Z,64.76
2016-07-13T02:02:26.668Z,64.97
2016-07-13T02:03:33.126Z,64.85
2016-07-13T02:04:25.836Z,65.07
2016-07-13T02:05:26.025Z,64.98
2016-07-13T02:06:32.135Z,64.83
2016-07-13T02:07:27.915Z,64.94
2016-07-13T02:08:29.397Z,64.88
2016-07-13T02:09:18.703Z,65.04
2016-07-13T02:10:25.982Z,65.04
2016-07-13T02:11:22.304Z,64.94
2016-07-13T02:12:20.162Z,64.81
2016-07-13T02:13:19.554Z,65.04
2016-07-13T02:14:36.459Z,64.99
2016-07-13T02:15:27.468Z,64.98
2016-07-13T02:16:31.971Z,64.67
2016-07-13T02:17:29.559Z,63.87
2016-07-13T02:18:25.426Z,63.54
2016-07-13T02:19:29.031Z,63.44
2016-07-13T02:20:27.081Z,63.44
2016-07-13T02:21:20.753Z,63.98
2016-07-13T02:22:27.344Z,64.56
2016-07-13T02:23:23.210Z,64.61
2016-07-13T02:24:24.483Z,64.58
2016-07-13T02:25:29.033Z,64.78
2016-07-13T02:26:26.978Z,64.89
2016-07-13T02:27:27.774Z,64.81
2016-07-13T02:28:28.590Z,64.83
2016-07-13T02:29:27.772Z,64.53
2016-07-13T02:30:23.485Z,64.93
2016-07-13T02:31:20.654Z,64.89
2016-07-13T02:32:12.983Z,64.65
2016-07-13T02:33:22.403Z,64.79
2016-07-13T02:34:26.349Z,64.79
2016-07-13T02:35:34.727Z,64.84
2016-07-13T02:36:31.076Z,64.48
2016-07-13T02:37:32.427Z,64.84
2016-07-13T02:38:25.515Z,64.82
2016-07-13T02:39:19.948Z,64.89
2016-07-13T02:40:19.546Z,64.75
2016-07-13T02:41:28.429Z,64.91
2016-07-13T02:42:29.108Z,64.83
2016-07-13T02:43:21.941Z,64.96
2016-07-13T02:44:27.925Z,64.87
2016-07-13T02:45:20.805Z,64.52
2016-07-13T02:46:28.705Z,64.73
2016-07-13T02:47:27.240Z,64.75
2016-07-13T02:48:20.732Z,64.80
2016-07-13T02:49:27.082Z,64.70
2016-07-13T02:50:21.170Z,64.64
2016-07-13T02:51:22.117Z,64.63
2016-07-13T02:52:23.526Z,64.41
2016-07-13T02:53:21.998Z,64.71
2016-07-13T02:54:27.943Z,64.87
2016-07-13T02:55:23.856Z,64.78
2016-07-13T02:56:27.344Z,64.76
2016-07-13T02:57:31.040Z,64.80
2016-07-13T02:58:25.487Z,64.84
2016-07-13T02:59:19.629Z,64.70
2016-07-13T03:00:25.223Z,64.62
2016-07-13T03:01:22.979Z,64.73
2016-07-13T03:02:18.069Z,64.54
2016-07-13T03:03:21.151Z,64.70
2016-07-13T03:04:16.757Z,64.75
2016-07-13T03:05:20.243Z,64.61
2016-07-13T03:06:18.406Z,64.39
2016-07-13T03:07:26.766Z,64.70
2016-07-13T03:08:26.418Z,64.62
2016-07-13T03:09:30.920Z,64.58
2016-07-13T03:10:32.108Z,64.49
2016-07-13T03:11:23.768Z,64.57
2016-07-13T03:12:19.680Z,64.62
2016-07-13T03:13:21.634Z,64.50
2016-07-13T03:14:22.460Z,64.61
2016-07-13T03:15:23.387Z,64.55
2016-07-13T03:16:27.696Z,64.66
2016-07-13T03:17:24.837Z,64.65
2016-07-13T03:18:28.127Z,64.55
2016-07-13T03:19:27.617Z,64.58
2016-07-13T03:20:30.492Z,64.69
2016-07-13T03:21:20.492Z,64.26
2016-07-13T03:22:12.992Z,64.48
2016-07-13T03:23:20.272Z,63.46
2016-07-13T03:24:23.455Z,63.34
2016-07-13T03:25:17.051Z,63.33
2016-07-13T03:26:18.935Z,64.21
2016-07-13T03:27:27.599Z,64.34
2016-07-13T03:28:23.282Z,64.38
2016-07-13T03:29:22.186Z,64.55
2016-07-13T03:30:25.265Z,64.46
2016-07-13T03:31:24.837Z,64.69
2016-07-13T03:32:33.937Z,64.60
2016-07-13T03:33:15.829Z,64.49
2016-07-13T03:34:30.083Z,64.64
2016-07-13T03:35:20.463Z,64.63
2016-07-13T03:36:22.127Z,64.52
2016-07-13T03:37:22.117Z,64.32
2016-07-13T03:38:19.668Z,64.58
2016-07-13T03:39:23.196Z,64.46
2016-07-13T03:40:21.783Z,64.63
2016-07-13T03:41:21.517Z,64.55
2016-07-13T03:42:26.455Z,64.58
2016-07-13T03:43:24.721Z,64.57
2016-07-13T03:44:27.140Z,64.54
2016-07-13T03:45:21.693Z,64.51
2016-07-13T03:46:20.341Z,64.61
2016-07-13T03:47:19.951Z,63.43
2016-07-13T03:48:24.554Z,63.29
2016-07-13T03:49:24.253Z,63.12
2016-07-13T03:50:22.816Z,62.90
2016-07-13T03:51:24.883Z,63.27
2016-07-13T03:52:28.985Z,63.25
2016-07-13T03:53:20.385Z,63.15
2016-07-13T03:54:22.800Z,63.41
2016-07-13T03:55:27.788Z,64.03
2016-07-13T03:56:26.456Z,64.21
2016-07-13T03:57:26.667Z,64.41
2016-07-13T03:58:27.571Z,64.40
2016-07-13T03:59:26.887Z,64.37
2016-07-13T04:00:31.709Z,64.49
2016-07-13T04:01:17.593Z,64.33
2016-07-13T04:02:29.060Z,64.41
2016-07-13T04:03:22.412Z,64.51
2016-07-13T04:04:24.876Z,64.42
2016-07-13T04:05:29.183Z,64.50
2016-07-13T04:06:30.113Z,64.39
2016-07-13T04:07:27.938Z,64.44
2016-07-13T04:08:35.784Z,64.45
2016-07-13T04:09:28.508Z,64.17
2016-07-13T04:10:20.005Z,64.38
2016-07-13T04:11:34.552Z,64.39
2016-07-13T04:12:28.564Z,64.34
2016-07-13T04:13:32.417Z,64.40
2016-07-13T04:14:21.671Z,64.44
2016-07-13T04:15:20.350Z,64.41
2016-07-13T04:16:28.343Z,64.45
2016-07-13T04:17:28.028Z,64.34
2016-07-13T04:18:32.549Z,64.40
2016-07-13T04:19:26.316Z,64.30
2016-07-13T04:20:24.173Z,64.40
2016-07-13T04:21:24.185Z,64.28
2016-07-13T04:22:19.171Z,64.34
2016-07-13T04:23:23.205Z,64.27
2016-07-13T04:24:25.462Z,64.38
2016-07-13T04:25:17.203Z,64.43
2016-07-13T04:26:28.268Z,64.26
2016-07-13T04:27:26.073Z,64.42
2016-07-13T04:28:26.231Z,64.37
2016-07-13T04:29:20.718Z,64.30
2016-07-13T04:30:17.347Z,64.34
2016-07-13T04:31:18.725Z,64.37
2016-07-13T04:32:20.327Z,64.35
2016-07-13T04:33:19.559Z,64.36
2016-07-13T04:34:23.734Z,64.32
2016-07-13T04:35:25.001Z,64.36
2016-07-13T04:36:20.909Z,64.29
2016-07-13T04:37:29.399Z,63.27
2016-07-13T04:38:19.391Z,64.17
2016-07-13T04:39:16.470Z,64.26
2016-07-13T04:40:22.224Z,64.33
2016-07-13T04:41:18.594Z,64.27
2016-07-13T04:42:19.324Z,64.28
2016-07-13T04:43:19.224Z,64.26
2016-07-13T04:44:20.868Z,64.22
2016-07-13T04:45:22.647Z,64.32
2016-07-13T04:46:27.071Z,64.29
2016-07-13T04:47:27.642Z,64.31
2016-07-13T04:48:18.952Z,64.26
2016-07-13T04:49:24.899Z,64.22
2016-07-13T04:50:20.094Z,64.23
2016-07-13T04:51:23.634Z,64.22
2016-07-13T04:52:28.712Z,64.27
2016-07-13T04:53:21.856Z,64.27
2016-07-13T04:54:22.961Z,64.28
2016-07-13T04:55:25.149Z,64.26
2016-07-13T04:56:24.131Z,64.31
2016-07-13T04:57:32.467Z,64.25
2016-07-13T04:58:27.424Z,64.24
2016-07-13T04:59:26.128Z,63.16
2016-07-13T05:00:27.318Z,62.76
2016-07-13T05:01:26.323Z,63.00
2016-07-13T05:02:18.237Z,63.20
2016-07-13T05:03:16.902Z,64.00
2016-07-13T05:04:22.654Z,64.17
2016-07-13T05:05:19.897Z,64.29
2016-07-13T05:06:28.985Z,64.16
2016-07-13T05:07:28.206Z,64.24
2016-07-13T05:08:22.224Z,64.38
2016-07-13T05:09:26.117Z,63.84
2016-07-13T05:10:16.193Z,64.34
2016-07-13T05:11:22.400Z,63.40
2016-07-13T05:12:13.770Z,63.22
2016-07-13T05:13:21.902Z,63.15
2016-07-13T05:14:25.564Z,63.15
2016-07-13T05:15:16.080Z,63.02
2016-07-13T05:16:22.073Z,62.95
2016-07-13T05:17:25.413Z,62.91
2016-07-13T05:18:26.091Z,62.95
2016-07-13T05:19:31.912Z,63.02
2016-07-13T05:20:22.585Z,63.33
2016-07-13T05:21:27.659Z,63.99
2016-07-13T05:22:24.117Z,64.35
2016-07-13T05:23:21.156Z,64.50
2016-07-13T05:24:27.615Z,64.59
2016-07-13T05:25:30.797Z,64.67
2016-07-13T05:26:23.841Z,65.28
2016-07-13T05:27:29.145Z,65.50
2016-07-13T05:28:26.517Z,65.88
2016-07-13T05:29:30.454Z,66.20
2016-07-13T05:30:26.225Z,66.37
2016-07-13T05:31:19.090Z,66.30
2016-07-13T05:32:31.565Z,66.47
2016-07-13T05:33:15.945Z,66.10
2016-07-13T05:34:18.166Z,64.90
2016-07-13T05:35:19.400Z,64.34
2016-07-13T05:36:25.964Z,64.35
2016-07-13T05:37:19.622Z,65.52
2016-07-13T05:38:22.385Z,65.67
2016-07-13T05:39:15.335Z,65.93
2016-07-13T05:40:25.276Z,66.03
2016-07-13T05:41:26.941Z,66.14
2016-07-13T05:42:26.577Z,66.11
2016-07-13T05:43:24.477Z,66.05
2016-07-13T05:44:15.754Z,65.95
2016-07-13T05:45:25.004Z,65.04
2016-07-13T05:46:32.702Z,64.60
2016-07-13T05:47:21.027Z,64.41
2016-07-13T05:48:20.317Z,64.16
2016-07-13T05:49:14.149Z,64.09
2016-07-13T05:50:20.701Z,64.14
2016-07-13T05:51:20.513Z,64.17
2016-07-13T05:52:22.803Z,64.07
2016-07-13T05:53:20.521Z,64.08
2016-07-13T05:54:19.747Z,64.37
2016-07-13T05:55:24.362Z,65.09
2016-07-13T05:56:23.038Z,65.15
2016-07-13T05:57:19.906Z,65.19
2016-07-13T05:58:23.099Z,65.33
2016-07-13T05:59:11.985Z,65.24
2016-07-13T06:00:12.835Z,65.30
2016-07-13T06:01:13.421Z,65.19
2016-07-13T06:02:27.159Z,65.26
2016-07-13T06:03:38.666Z,65.11
2016-07-13T06:04:25.977Z,65.15
2016-07-13T06:05:21.331Z,65.85
2016-07-13T06:06:18.299Z,63.71
2016-07-13T06:07:23.118Z,62.82
2016-07-13T06:08:17.289Z,62.99
2016-07-13T06:09:25.181Z,63.54
2016-07-13T06:10:25.722Z,64.07
2016-07-13T06:11:36.359Z,63.91
2016-07-13T06:12:18.239Z,64.60
2016-07-13T06:13:26.149Z,64.71
2016-07-13T06:14:26.685Z,65.43
2016-07-13T06:15:25.328Z,65.50
2016-07-13T06:16:26.259Z,65.43
2016-07-13T06:17:32.004Z,65.35
2016-07-13T06:18:19.821Z,65.48
2016-07-13T06:19:24.026Z,65.63
2016-07-13T06:20:22.922Z,65.89
2016-07-13T06:21:28.466Z,66.11
2016-07-13T06:22:28.813Z,66.53
2016-07-13T06:23:30.048Z,65.97
2016-07-13T06:24:30.616Z,66.06
2016-07-13T06:25:24.993Z,65.51
2016-07-13T06:26:26.694Z,64.64
2016-07-13T06:27:30.035Z,64.27
2016-07-13T06:28:18.873Z,63.95
2016-07-13T06:29:19.508Z,63.48
2016-07-13T06:30:20.830Z,63.16
2016-07-13T06:31:21.598Z,62.87
2016-07-13T06:32:25.657Z,62.69
2016-07-13T06:33:27.772Z,63.53
2016-07-13T06:34:21.987Z,63.67
2016-07-13T06:35:22.302Z,63.81
2016-07-13T06:36:26.008Z,63.81
2016-07-13T06:37:20.972Z,63.88
2016-07-13T06:38:17.204Z,63.84
2016-07-13T06:39:20.797Z,63.79
2016-07-13T06:40:23.260Z,63.78
2016-07-13T06:41:20.809Z,63.77
2016-07-13T06:42:26.347Z,63.72
2016-07-13T06:43:18.162Z,63.74
2016-07-13T06:44:23.595Z,63.72
2016-07-13T06:45:15.616Z,63.71
2016-07-13T06:46:24.227Z,63.67
2016-07-13T06:47:26.945Z,63.67
2016-07-13T06:48:22.090Z,63.66
2016-07-13T06:49:19.026Z,63.66
2016-07-13T06:50:21.300Z,63.65
2016-07-13T06:51:26.312Z,63.63
2016-07-13T06:52:20.108Z,63.63
2016-07-13T06:53:18.440Z,63.62
2016-07-13T06:54:19.575Z,63.63
2016-07-13T06:55:20.195Z,63.63
2016-07-13T06:56:22.345Z,63.62
2016-07-13T06:57:22.611Z,63.61
2016-07-13T06:58:22.181Z,63.61
2016-07-13T06:59:30.870Z,63.64
2016-07-13T07:00:24.229Z,63.63
2016-07-13T07:01:25.976Z,63.64
2016-07-13T07:02:19.225Z,63.66
2016-07-13T07:03:22.017Z,63.64
2016-07-13T07:04:22.763Z,63.66
2016-07-13T07:05:22.625Z,63.66
2016-07-13T07:06:22.341Z,63.65
2016-07-13T07:07:16.732Z,63.68
2016-07-13T07:08:26.000Z,63.68
2016-07-13T07:09:26.967Z,63.66
2016-07-13T07:10:21.945Z,63.68
2016-07-13T07:11:37.068Z,63.71
2016-07-13T07:12:27.914Z,63.70
2016-07-13T07:13:25.760Z,63.73
2016-07-13T07:14:20.313Z,63.71
2016-07-13T07:15:32.529Z,63.73
2016-07-13T07:16:19.530Z,63.71
2016-07-13T07:17:27.404Z,63.73
2016-07-13T07:18:26.775Z,63.75
2016-07-13T07:19:20.837Z,63.76
2016-07-13T07:20:29.084Z,63.77
2016-07-13T07:21:26.375Z,63.76
2016-07-13T07:22:20.216Z,63.77
2016-07-13T07:23:19.584Z,63.78
2016-07-13T07:24:20.822Z,63.81
2016-07-13T07:25:20.574Z,63.80
2016-07-13T07:26:20.017Z,63.82
2016-07-13T07:27:23.040Z,63.85
2016-07-13T07:28:21.054Z,63.80
2016-07-13T07:29:32.171Z,63.91
2016-07-13T07:30:27.213Z,63.82
2016-07-13T07:31:21.917Z,63.87
2016-07-13T07:32:26.865Z,63.86
2016-07-13T07:33:38.956Z,63.88
2016-07-13T07:34:27.345Z,63.91
2016-07-13T07:35:28.170Z,63.95
2016-07-13T07:36:26.483Z,63.99
2016-07-13T07:37:22.138Z,64.00
2016-07-13T07:38:24.506Z,63.85
2016-07-13T07:39:14.480Z,63.98
2016-07-13T07:40:22.522Z,64.03
2016-07-13T07:41:29.032Z,63.89
2016-07-13T07:42:30.475Z,63.87
2016-07-13T07:43:27.336Z,63.82
2016-07-13T07:44:20.965Z,62.80
2016-07-13T07:45:22.775Z,62.69
2016-07-13T07:46:18.965Z,62.61
2016-07-13T07:47:16.888Z,62.59
2016-07-13T07:48:20.280Z,62.57
2016-07-13T07:49:26.225Z,62.52
2016-07-13T07:50:21.798Z,62.45
2016-07-13T07:51:35.804Z,62.55
2016-07-13T07:52:21.552Z,62.67
2016-07-13T07:53:27.982Z,63.50
2016-07-13T07:54:29.916Z,63.71
2016-07-13T07:55:26.168Z,62.82
2016-07-13T07:56:19.314Z,62.64
2016-07-13T07:57:19.422Z,62.68
2016-07-13T07:58:17.128Z,62.66
2016-07-13T07:59:19.849Z,62.76
2016-07-13T08:00:20.571Z,62.61
2016-07-13T08:01:23.652Z,62.58
2016-07-13T08:02:18.344Z,62.93
2016-07-13T08:03:24.588Z,63.60
2016-07-13T08:04:28.287Z,63.78
2016-07-13T08:05:30.013Z,63.94
2016-07-13T08:06:26.146Z,63.96
2016-07-13T08:07:19.716Z,63.91
2016-07-13T08:08:28.597Z,63.98
2016-07-13T08:09:21.627Z,63.97
2016-07-13T08:10:18.187Z,63.96
2016-07-13T08:11:24.228Z,64.00
2016-07-13T08:12:28.778Z,63.96
2016-07-13T08:13:28.245Z,63.93
2016-07-13T08:14:26.746Z,63.94
2016-07-13T08:15:25.719Z,63.96
2016-07-13T08:16:20.922Z,63.96
2016-07-13T08:17:29.029Z,63.99
2016-07-13T08:18:19.535Z,63.01
2016-07-13T08:19:29.267Z,63.19
2016-07-13T08:20:30.754Z,63.74
2016-07-13T08:21:24.901Z,63.86
2016-07-13T08:22:14.923Z,63.93
2016-07-13T08:23:16.494Z,63.92
2016-07-13T08:24:17.370Z,63.99
2016-07-13T08:25:25.845Z,64.01
2016-07-13T08:26:20.793Z,63.08
2016-07-13T08:27:28.767Z,63.79
2016-07-13T08:28:28.281Z,63.81
2016-07-13T08:29:26.417Z,63.88
2016-07-13T08:30:22.088Z,63.93
2016-07-13T08:31:28.295Z,63.91
2016-07-13T08:32:18.086Z,63.87
2016-07-13T08:33:18.530Z,63.88
2016-07-13T08:34:22.909Z,63.86
2016-07-13T08:35:24.208Z,63.88
2016-07-13T08:36:24.890Z,63.85
2016-07-13T08:37:26.342Z,63.85
2016-07-13T08:38:17.677Z,63.82
2016-07-13T08:39:22.191Z,63.78
2016-07-13T08:40:22.709Z,63.79
2016-07-13T08:41:21.386Z,63.79
2016-07-13T08:42:14.283Z,63.75
2016-07-13T08:43:20.172Z,63.81
2016-07-13T08:44:18.745Z,63.85
2016-07-13T08:45:20.862Z,63.83
2016-07-13T08:46:27.977Z,63.82
2016-07-13T08:47:25.061Z,63.80
2016-07-13T08:48:16.043Z,63.75
2016-07-13T08:49:20.579Z,63.73
2016-07-13T08:50:27.328Z,63.66
2016-07-13T08:51:22.746Z,63.60
2016-07-13T08:52:28.447Z,63.57
2016-07-13T08:53:32.469Z,63.51
2016-07-13T08:54:21.448Z,63.52
2016-07-13T08:55:21.898Z,63.48
2016-07-13T08:56:21.291Z,63.53
2016-07-13T08:57:28.771Z,63.53
2016-07-13T08:58:27.782Z,63.54
2016-07-13T08:59:26.229Z,63.50
2016-07-13T09:00:21.295Z,63.56
2016-07-13T09:01:19.076Z,63.60
2016-07-13T09:02:19.999Z,63.61
2016-07-13T09:03:14.379Z,63.69
2016-07-13T09:04:20.863Z,62.98
2016-07-13T09:05:23.052Z,63.53
2016-07-13T09:06:21.742Z,63.56
2016-07-13T09:07:19.707Z,63.54
2016-07-13T09:08:21.379Z,63.60
2016-07-13T09:09:26.711Z,63.56
2016-07-13T09:10:26.415Z,63.54
2016-07-13T09:11:25.863Z,63.55
2016-07-13T09:12:33.192Z,63.54
2016-07-13T09:13:32.372Z,62.56
2016-07-13T09:14:20.016Z,62.74
2016-07-13T09:15:21.783Z,63.25
2016-07-13T09:16:19.288Z,63.40
2016-07-13T09:17:22.636Z,63.44
2016-07-13T09:18:27.832Z,63.48
2016-07-13T09:19:22.901Z,63.53
2016-07-13T09:20:30.931Z,63.53
2016-07-13T09:21:27.209Z,63.54
2016-07-13T09:22:19.804Z,63.50
2016-07-13T09:23:27.580Z,63.56
2016-07-13T09:24:32.778Z,63.57
2016-07-13T09:25:22.783Z,63.60
2016-07-13T09:26:22.768Z,63.41
2016-07-13T09:27:17.363Z,63.43
2016-07-13T09:28:22.978Z,63.44
2016-07-13T09:29:21.120Z,63.39
2016-07-13T09:30:25.990Z,63.50
2016-07-13T09:31:22.368Z,63.53
2016-07-13T09:32:22.263Z,63.45
2016-07-13T09:33:21.150Z,63.47
2016-07-13T09:34:28.818Z,63.44
2016-07-13T09:35:23.729Z,63.44
2016-07-13T09:36:23.154Z,63.58
2016-07-13T09:37:22.892Z,63.53
2016-07-13T09:38:21.396Z,63.38
2016-07-13T09:39:19.868Z,63.43
2016-07-13T09:40:23.301Z,63.30
2016-07-13T09:41:25.514Z,63.39
2016-07-13T09:42:23.324Z,63.42
2016-07-13T09:43:25.323Z,63.33
2016-07-13T09:44:18.880Z,63.49
2016-07-13T09:45:18.989Z,63.44
2016-07-13T09:46:18.177Z,62.40
2016-07-13T09:47:27.959Z,62.26
2016-07-13T09:48:18.909Z,62.14
2016-07-13T09:49:21.988Z,62.09
2016-07-13T09:50:24.455Z,62.12
2016-07-13T09:51:24.256Z,62.06
2016-07-13T09:52:19.415Z,61.84
2016-07-13T09:53:21.265Z,61.88
2016-07-13T09:54:21.887Z,62.08
2016-07-13T09:55:28.231Z,62.90
2016-07-13T09:56:27.194Z,63.03
2016-07-13T09:57:27.726Z,63.17
2016-07-13T09:58:20.723Z,63.20
2016-07-13T09:59:17.324Z,63.33
2016-07-13T10:00:16.638Z,63.39
2016-07-13T10:01:21.667Z,63.28
2016-07-13T10:02:17.597Z,63.34
2016-07-13T10:03:29.258Z,63.40
2016-07-13T10:04:24.761Z,63.39
2016-07-13T10:05:30.714Z,63.40
2016-07-13T10:06:34.182Z,63.35
2016-07-13T10:07:25.397Z,63.30
2016-07-13T10:08:21.749Z,63.37
2016-07-13T10:09:31.761Z,63.45
2016-07-13T10:10:23.217Z,63.29
2016-07-13T10:11:20.307Z,63.31
2016-07-13T10:12:22.078Z,63.32
2016-07-13T10:13:20.116Z,63.33
2016-07-13T10:14:27.292Z,63.31
2016-07-13T10:15:26.349Z,63.34
2016-07-13T10:16:27.920Z,63.32
2016-07-13T10:17:26.394Z,63.34
2016-07-13T10:18:31.419Z,63.35
2016-07-13T10:19:18.981Z,63.33
2016-07-13T10:20:22.365Z,63.28
2016-07-13T10:21:23.197Z,63.34
2016-07-13T10:22:21.955Z,63.35
2016-07-13T10:23:24.392Z,63.29
2016-07-13T10:24:22.336Z,63.27
2016-07-13T10:25:26.534Z,63.27
2016-07-13T10:26:31.830Z,63.31
2016-07-13T10:27:32.828Z,63.26
2016-07-13T10:28:25.964Z,63.33
2016-07-13T10:29:27.094Z,63.32
2016-07-13T10:30:33.455Z,63.36
2016-07-13T10:31:18.934Z,63.38
2016-07-13T10:32:18.414Z,63.35
2016-07-13T10:33:22.363Z,63.35
2016-07-13T10:34:21.809Z,63.35
2016-07-13T10:35:24.888Z,63.37
2016-07-13T10:36:39.032Z,63.34
2016-07-13T10:37:23.776Z,63.33
2016-07-13T10:38:25.744Z,63.32
2016-07-13T10:39:28.910Z,63.35
2016-07-13T10:40:24.925Z,63.34
2016-07-13T10:41:22.379Z,63.31
2016-07-13T10:42:18.794Z,63.31
2016-07-13T10:43:25.357Z,63.28
2016-07-13T10:44:27.802Z,63.25
2016-07-13T10:45:25.151Z,63.17
2016-07-13T10:46:23.274Z,63.14
2016-07-13T10:47:26.335Z,63.16
2016-07-13T10:48:24.061Z,63.21
2016-07-13T10:49:30.843Z,62.14
2016-07-13T10:50:27.474Z,61.92
2016-07-13T10:51:24.812Z,61.78
2016-07-13T10:52:22.453Z,61.81
2016-07-13T10:53:32.495Z,61.78
2016-07-13T10:54:19.603Z,61.77
2016-07-13T10:55:29.174Z,61.73
2016-07-13T10:56:20.230Z,61.70
2016-07-13T10:57:18.461Z,61.71
2016-07-13T10:58:30.894Z,61.81
2016-07-13T10:59:32.331Z,61.78
2016-07-13T11:00:26.704Z,61.83
2016-07-13T11:01:32.339Z,61.78
2016-07-13T11:02:32.792Z,61.81
2016-07-13T11:03:40.845Z,61.78
2016-07-13T11:04:27.763Z,61.72
2016-07-13T11:05:22.958Z,61.76
2016-07-13T11:06:16.541Z,61.70
2016-07-13T11:07:16.634Z,61.61
2016-07-13T11:08:24.233Z,61.76
2016-07-13T11:09:31.039Z,61.61
2016-07-13T11:10:38.398Z,61.57
2016-07-13T11:11:25.664Z,61.56
2016-07-13T11:12:25.467Z,61.62
2016-07-13T11:13:18.920Z,61.71
2016-07-13T11:14:24.048Z,61.72
2016-07-13T11:15:20.779Z,61.62
2016-07-13T11:16:23.112Z,62.37
2016-07-13T11:17:20.794Z,62.69
2016-07-13T11:18:18.695Z,62.68
2016-07-13T11:19:20.610Z,62.80
2016-07-13T11:20:29.111Z,62.92
2016-07-13T11:21:28.500Z,62.91
2016-07-13T11:22:25.744Z,63.00
2016-07-13T11:23:21.861Z,62.94
2016-07-13T11:24:25.556Z,63.07
2016-07-13T11:25:17.743Z,62.96
2016-07-13T11:26:21.066Z,63.00
2016-07-13T11:27:21.276Z,62.82
2016-07-13T11:28:21.387Z,62.88
2016-07-13T11:29:23.877Z,62.70
2016-07-13T11:30:20.428Z,62.91
2016-07-13T11:31:23.457Z,62.91
2016-07-13T11:32:26.291Z,62.85
2016-07-13T11:33:26.387Z,62.82
2016-07-13T11:34:27.413Z,62.96
2016-07-13T11:35:32.621Z,62.87
2016-07-13T11:36:20.237Z,62.90
2016-07-13T11:37:21.849Z,63.02
2016-07-13T11:38:21.256Z,62.99
2016-07-13T11:39:27.610Z,62.90
2016-07-13T11:40:26.108Z,61.92
2016-07-13T11:41:26.192Z,61.83
2016-07-13T11:42:23.024Z,61.67
2016-07-13T11:43:32.770Z,61.59
2016-07-13T11:44:28.313Z,61.57
2016-07-13T11:45:27.230Z,61.89
2016-07-13T11:46:26.809Z,61.55
2016-07-13T11:47:18.760Z,61.46
2016-07-13T11:48:23.104Z,61.45
2016-07-13T11:49:21.579Z,61.47
2016-07-13T11:50:28.299Z,61.55
2016-07-13T11:51:31.386Z,62.51
2016-07-13T11:52:22.279Z,62.59
2016-07-13T11:53:22.901Z,62.68
2016-07-13T11:54:28.247Z,62.81
2016-07-13T11:55:31.519Z,62.90
2016-07-13T11:56:21.322Z,62.68
2016-07-13T11:57:22.419Z,61.80
2016-07-13T11:58:24.882Z,61.54
2016-07-13T11:59:22.639Z,62.47
2016-07-13T12:00:31.456Z,62.57
2016-07-13T12:01:21.630Z,62.71
2016-07-13T12:02:33.912Z,62.70
2016-07-13T12:03:23.224Z,62.69
2016-07-13T12:04:24.827Z,62.68
2016-07-13T12:05:26.532Z,62.81
2016-07-13T12:06:31.733Z,62.58
2016-07-13T12:07:22.802Z,62.76
2016-07-13T12:08:20.145Z,62.66
2016-07-13T12:09:17.538Z,62.68
2016-07-13T12:10:36.622Z,62.82
2016-07-13T12:11:29.120Z,62.70
2016-07-13T12:12:24.838Z,62.75
2016-07-13T12:13:18.851Z,62.74
2016-07-13T12:14:30.736Z,62.64
2016-07-13T12:15:19.274Z,62.70
2016-07-13T12:16:22.149Z,62.65
2016-07-13T12:17:30.248Z,62.77
2016-07-13T12:18:23.085Z,62.84
2016-07-13T12:19:30.019Z,62.71
2016-07-13T12:20:32.921Z,62.71
2016-07-13T12:21:17.985Z,62.73
2016-07-13T12:22:27.080Z,62.80
2016-07-13T12:23:20.870Z,62.77
2016-07-13T12:24:29.380Z,62.52
2016-07-13T12:25:25.827Z,62.78
2016-07-13T12:26:26.044Z,62.73
2016-07-13T12:27:28.168Z,62.81
2016-07-13T12:28:18.654Z,62.76
2016-07-13T12:29:21.002Z,62.71
2016-07-13T12:30:21.867Z,62.70
2016-07-13T12:31:28.561Z,62.81
2016-07-13T12:32:19.585Z,62.74
2016-07-13T12:33:25.040Z,62.76
2016-07-13T12:34:26.276Z,62.65
2016-07-13T12:35:16.953Z,62.69
2016-07-13T12:36:19.871Z,62.73
2016-07-13T12:37:24.147Z,62.80
2016-07-13T12:38:26.260Z,62.75
2016-07-13T12:39:20.593Z,62.89
2016-07-13T12:40:26.734Z,62.90
2016-07-13T12:41:29.685Z,62.78
2016-07-13T12:42:26.951Z,62.87
2016-07-13T12:43:17.332Z,62.79
2016-07-13T12:44:27.321Z,62.80
2016-07-13T12:45:28.071Z,62.81
2016-07-13T12:46:20.526Z,62.75
2016-07-13T12:47:25.652Z,62.80
2016-07-13T12:48:32.802Z,62.75
2016-07-13T12:49:22.085Z,62.87
2016-07-13T12:50:26.906Z,61.84
2016-07-13T12:51:28.503Z,61.91
2016-07-13T12:52:19.858Z,62.60
2016-07-13T12:53:23.151Z,62.72
2016-07-13T12:54:21.610Z,62.75
2016-07-13T12:55:17.090Z,62.74
2016-07-13T12:56:21.931Z,62.79
2016-07-13T12:57:27.266Z,62.79
2016-07-13T12:58:24.816Z,62.84
2016-07-13T12:59:32.527Z,62.80
2016-07-13T13:00:31.096Z,62.99
2016-07-13T13:01:22.072Z,62.92
2016-07-13T13:02:32.588Z,62.93